sensor_id;sensor_type;location;lat;lon;timestamp;temperature;humidity
43810;DHT22;29440;48.208;11.162;2024-03-23T00:55:40;10.20;99.90
43810;DHT22;29440;48.208;11.162;2024-03-23T00:58:06;10.20;99.90
43810;DHT22;29440;48.208;11.162;2024-03-23T01:00:32;10.20;99.90
43810;DHT22;29440;48.208;11.162;2024-03-23T01:02:57;10.30;99.90
43810;DHT22;29440;48.208;11.162;2024-03-23T01:05:23;10.30;99.90
43810;DHT22;29440;48.208;11.162;2024-03-23T01:07:48;10.50;99.90
43810;DHT22;29440;48.208;11.162;2024-03-23T01:10:14;10.40;99.90
43810;DHT22;29440;48.208;11.162;2024-03-23T01:12:39;10.40;99.90
43810;DHT22;29440;48.208;11.162;2024-03-23T01:15:05;10.40;99.90
43810;DHT22;29440;48.208;11.162;2024-03-23T01:17:31;10.40;99.90
43810;DHT22;29440;48.208;11.162;2024-03-23T01:20:05;10.50;99.90
43810;DHT22;29440;48.208;11.162;2024-03-23T01:22:31;10.50;99.90
43810;DHT22;29440;48.208;11.162;2024-03-23T01:24:57;10.40;99.90
43810;DHT22;29440;48.208;11.162;2024-03-23T01:27:23;10.50;99.90
43810;DHT22;29440;48.208;11.162;2024-03-23T01:29:49;10.50;99.90
43810;DHT22;29440;48.208;11.162;2024-03-23T01:32:14;10.50;99.90
43810;DHT22;29440;48.208;11.162;2024-03-23T01:34:40;10.60;99.90
43810;DHT22;29440;48.208;11.162;2024-03-23T01:37:05;10.50;99.90
43810;DHT22;29440;48.208;11.162;2024-03-23T01:39:31;10.60;99.90
43810;DHT22;29440;48.208;11.162;2024-03-23T01:41:56;10.50;99.90
43810;DHT22;29440;48.208;11.162;2024-03-23T01:44:22;10.50;99.90
43810;DHT22;29440;48.208;11.162;2024-03-23T01:46:48;10.60;99.90
43810;DHT22;29440;48.208;11.162;2024-03-23T01:49:14;10.50;99.90
43810;DHT22;29440;48.208;11.162;2024-03-23T01:51:39;10.40;99.90
43810;DHT22;29440;48.208;11.162;2024-03-23T01:54:06;10.40;99.90
43810;DHT22;29440;48.208;11.162;2024-03-23T01:56:33;10.40;99.90
43810;DHT22;29440;48.208;11.162;2024-03-23T01:59:03;10.40;99.90
43810;DHT22;29440;48.208;11.162;2024-03-23T02:01:29;10.30;99.90
43810;DHT22;29440;48.208;11.162;2024-03-23T02:03:55;10.30;99.90
43810;DHT22;29440;48.208;11.162;2024-03-23T02:06:21;10.30;99.90
43810;DHT22;29440;48.208;11.162;2024-03-23T02:08:48;10.30;99.90
43810;DHT22;29440;48.208;11.162;2024-03-23T02:11:13;10.20;99.90
43810;DHT22;29440;48.208;11.162;2024-03-23T02:13:39;10.30;99.90
43810;DHT22;29440;48.208;11.162;2024-03-23T02:16:05;10.30;99.90
43810;DHT22;29440;48.208;11.162;2024-03-23T02:18:34;10.20;99.90
43810;DHT22;29440;48.208;11.162;2024-03-23T02:21:00;10.30;99.90
43810;DHT22;29440;48.208;11.162;2024-03-23T02:23:26;10.40;99.90
43810;DHT22;29440;48.208;11.162;2024-03-23T02:25:51;10.30;99.90
43810;DHT22;29440;48.208;11.162;2024-03-23T02:28:19;10.40;99.90
43810;DHT22;29440;48.208;11.162;2024-03-23T02:30:44;10.50;99.90
43810;DHT22;29440;48.208;11.162;2024-03-23T02:33:10;10.40;99.90
43810;DHT22;29440;48.208;11.162;2024-03-23T02:35:36;10.40;99.90
43810;DHT22;29440;48.208;11.162;2024-03-23T02:38:01;10.50;99.90
43810;DHT22;29440;48.208;11.162;2024-03-23T02:40:27;10.50;99.90
43810;DHT22;29440;48.208;11.162;2024-03-23T02:42:53;10.50;99.90
43810;DHT22;29440;48.208;11.162;2024-03-23T02:45:19;10.40;99.90
43810;DHT22;29440;48.208;11.162;2024-03-23T02:47:44;10.40;99.90
43810;DHT22;29440;48.208;11.162;2024-03-23T02:50:10;10.40;99.90
43810;DHT22;29440;48.208;11.162;2024-03-23T02:52:36;10.40;99.90
43810;DHT22;29440;48.208;11.162;2024-03-23T02:55:02;10.50;99.90
43810;DHT22;29440;48.208;11.162;2024-03-23T02:57:28;10.40;99.90
43810;DHT22;29440;48.208;11.162;2024-03-23T02:59:54;10.30;99.90
43810;DHT22;29440;48.208;11.162;2024-03-23T03:02:20;10.40;99.90
43810;DHT22;29440;48.208;11.162;2024-03-23T03:04:46;10.30;99.90
43810;DHT22;29440;48.208;11.162;2024-03-23T03:07:12;10.30;99.90
43810;DHT22;29440;48.208;11.162;2024-03-23T03:09:38;10.30;99.90
43810;DHT22;29440;48.208;11.162;2024-03-23T03:12:05;10.30;99.90
43810;DHT22;29440;48.208;11.162;2024-03-23T03:14:31;10.30;99.90
43810;DHT22;29440;48.208;11.162;2024-03-23T03:16:56;10.30;99.90
43810;DHT22;29440;48.208;11.162;2024-03-23T03:19:22;10.30;99.90
43810;DHT22;29440;48.208;11.162;2024-03-23T03:21:47;10.30;99.90
43810;DHT22;29440;48.208;11.162;2024-03-23T03:24:13;10.30;99.90
43810;DHT22;29440;48.208;11.162;2024-03-23T03:26:39;10.30;99.90
43810;DHT22;29440;48.208;11.162;2024-03-23T03:29:04;10.30;99.90
43810;DHT22;29440;48.208;11.162;2024-03-23T03:31:30;10.30;99.90
43810;DHT22;29440;48.208;11.162;2024-03-23T03:33:56;10.30;99.90
43810;DHT22;29440;48.208;11.162;2024-03-23T03:36:22;10.40;99.90
43810;DHT22;29440;48.208;11.162;2024-03-23T03:38:47;10.40;99.90
43810;DHT22;29440;48.208;11.162;2024-03-23T03:41:13;10.40;99.90
43810;DHT22;29440;48.208;11.162;2024-03-23T03:43:38;10.50;99.90
43810;DHT22;29440;48.208;11.162;2024-03-23T03:46:04;10.60;99.90
43810;DHT22;29440;48.208;11.162;2024-03-23T03:48:30;10.50;99.90
43810;DHT22;29440;48.208;11.162;2024-03-23T03:50:55;10.60;99.90
43810;DHT22;29440;48.208;11.162;2024-03-23T03:53:21;10.70;99.90
43810;DHT22;29440;48.208;11.162;2024-03-23T03:55:47;10.70;99.90
43810;DHT22;29440;48.208;11.162;2024-03-23T03:58:12;10.70;99.90
43810;DHT22;29440;48.208;11.162;2024-03-23T04:00:38;10.60;99.90
43810;DHT22;29440;48.208;11.162;2024-03-23T04:03:04;10.70;99.90
43810;DHT22;29440;48.208;11.162;2024-03-23T04:05:29;10.70;99.90
43810;DHT22;29440;48.208;11.162;2024-03-23T04:07:55;10.80;99.90
43810;DHT22;29440;48.208;11.162;2024-03-23T04:10:21;10.90;99.90
43810;DHT22;29440;48.208;11.162;2024-03-23T04:12:47;11.00;99.90
43810;DHT22;29440;48.208;11.162;2024-03-23T04:15:13;11.10;99.90
43810;DHT22;29440;48.208;11.162;2024-03-23T04:17:39;11.20;99.90
43810;DHT22;29440;48.208;11.162;2024-03-23T04:20:05;11.40;99.90
43810;DHT22;29440;48.208;11.162;2024-03-23T04:22:34;11.40;99.90
43810;DHT22;29440;48.208;11.162;2024-03-23T04:25:00;11.40;99.90
43810;DHT22;29440;48.208;11.162;2024-03-23T04:27:34;11.50;99.90
43810;DHT22;29440;48.208;11.162;2024-03-23T04:30:00;11.60;99.90
43810;DHT22;29440;48.208;11.162;2024-03-23T04:32:27;11.60;99.90
43810;DHT22;29440;48.208;11.162;2024-03-23T04:34:53;11.70;99.90
43810;DHT22;29440;48.208;11.162;2024-03-23T04:37:20;11.70;99.90
43810;DHT22;29440;48.208;11.162;2024-03-23T04:39:46;11.80;99.90
43810;DHT22;29440;48.208;11.162;2024-03-23T04:42:11;11.80;99.90
43810;DHT22;29440;48.208;11.162;2024-03-23T04:44:37;11.90;99.90
43810;DHT22;29440;48.208;11.162;2024-03-23T04:47:03;11.90;99.90
43810;DHT22;29440;48.208;11.162;2024-03-23T04:49:28;11.90;99.90
43810;DHT22;29440;48.208;11.162;2024-03-23T04:51:54;11.90;99.90
43810;DHT22;29440;48.208;11.162;2024-03-23T04:54:20;11.80;99.90
43810;DHT22;29440;48.208;11.162;2024-03-23T04:56:45;11.70;99.90
43810;DHT22;29440;48.208;11.162;2024-03-23T04:59:11;11.60;99.90
43810;DHT22;29440;48.208;11.162;2024-03-23T05:01:37;11.50;99.90
43810;DHT22;29440;48.208;11.162;2024-03-23T05:04:04;11.40;99.90
43810;DHT22;29440;48.208;11.162;2024-03-23T05:06:30;11.20;99.90
43810;DHT22;29440;48.208;11.162;2024-03-23T05:08:56;11.10;99.90
43810;DHT22;29440;48.208;11.162;2024-03-23T05:11:21;11.10;99.90
43810;DHT22;29440;48.208;11.162;2024-03-23T05:13:57;10.90;99.90
43810;DHT22;29440;48.208;11.162;2024-03-23T05:16:23;10.90;99.90
43810;DHT22;29440;48.208;11.162;2024-03-23T05:18:48;10.80;99.90
43810;DHT22;29440;48.208;11.162;2024-03-23T05:21:14;10.70;99.90
43810;DHT22;29440;48.208;11.162;2024-03-23T05:23:40;10.60;99.90
43810;DHT22;29440;48.208;11.162;2024-03-23T05:26:05;10.60;99.90
43810;DHT22;29440;48.208;11.162;2024-03-23T05:28:31;10.60;99.90
43810;DHT22;29440;48.208;11.162;2024-03-23T05:30:57;10.60;99.90
43810;DHT22;29440;48.208;11.162;2024-03-23T05:33:22;10.70;99.90
43810;DHT22;29440;48.208;11.162;2024-03-23T05:35:57;10.50;99.90
43810;DHT22;29440;48.208;11.162;2024-03-23T05:38:22;10.60;99.90
43810;DHT22;29440;48.208;11.162;2024-03-23T05:40:58;10.70;99.90
43810;DHT22;29440;48.208;11.162;2024-03-23T05:43:24;10.70;99.90
43810;DHT22;29440;48.208;11.162;2024-03-23T05:45:57;10.80;99.90
43810;DHT22;29440;48.208;11.162;2024-03-23T05:48:23;10.90;99.90
43810;DHT22;29440;48.208;11.162;2024-03-23T05:50:49;11.10;99.90
43810;DHT22;29440;48.208;11.162;2024-03-23T05:53:16;11.40;99.90
43810;DHT22;29440;48.208;11.162;2024-03-23T05:55:42;11.60;99.90
43810;DHT22;29440;48.208;11.162;2024-03-23T05:58:07;11.90;99.90
43810;DHT22;29440;48.208;11.162;2024-03-23T06:00:33;12.10;99.90
43810;DHT22;29440;48.208;11.162;2024-03-23T06:02:59;12.30;99.90
43810;DHT22;29440;48.208;11.162;2024-03-23T06:05:24;12.60;99.90
43810;DHT22;29440;48.208;11.162;2024-03-23T06:07:50;13.10;99.90
43810;DHT22;29440;48.208;11.162;2024-03-23T06:10:16;13.70;99.90
43810;DHT22;29440;48.208;11.162;2024-03-23T06:12:41;14.30;99.90
43810;DHT22;29440;48.208;11.162;2024-03-23T06:15:08;14.90;99.90
43810;DHT22;29440;48.208;11.162;2024-03-23T06:17:36;15.40;99.90
43810;DHT22;29440;48.208;11.162;2024-03-23T06:20:02;15.80;99.90
43810;DHT22;29440;48.208;11.162;2024-03-23T06:22:28;16.10;99.90
43810;DHT22;29440;48.208;11.162;2024-03-23T06:24:53;16.60;99.30
43810;DHT22;29440;48.208;11.162;2024-03-23T06:27:22;17.00;98.20
43810;DHT22;29440;48.208;11.162;2024-03-23T06:29:52;17.60;98.10
43810;DHT22;29440;48.208;11.162;2024-03-23T06:32:18;18.10;96.90
43810;DHT22;29440;48.208;11.162;2024-03-23T06:34:44;18.30;96.80
43810;DHT22;29440;48.208;11.162;2024-03-23T06:37:10;18.80;95.60
43810;DHT22;29440;48.208;11.162;2024-03-23T06:39:36;19.20;95.20
43810;DHT22;29440;48.208;11.162;2024-03-23T06:42:03;19.50;95.00
43810;DHT22;29440;48.208;11.162;2024-03-23T06:44:29;19.90;94.30
43810;DHT22;29440;48.208;11.162;2024-03-23T06:46:55;20.30;93.30
43810;DHT22;29440;48.208;11.162;2024-03-23T06:49:22;20.40;93.40
43810;DHT22;29440;48.208;11.162;2024-03-23T06:51:48;20.50;93.50
43810;DHT22;29440;48.208;11.162;2024-03-23T06:54:13;20.10;93.00
43810;DHT22;29440;48.208;11.162;2024-03-23T06:56:39;19.50;93.50
43810;DHT22;29440;48.208;11.162;2024-03-23T06:59:04;19.00;94.30
43810;DHT22;29440;48.208;11.162;2024-03-23T07:01:30;18.50;94.80
43810;DHT22;29440;48.208;11.162;2024-03-23T07:03:55;17.90;95.60
43810;DHT22;29440;48.208;11.162;2024-03-23T07:06:21;17.40;96.80
43810;DHT22;29440;48.208;11.162;2024-03-23T07:08:47;16.90;98.20
43810;DHT22;29440;48.208;11.162;2024-03-23T07:11:18;16.30;99.90
43810;DHT22;29440;48.208;11.162;2024-03-23T07:13:45;15.80;99.90
43810;DHT22;29440;48.208;11.162;2024-03-23T07:16:11;15.30;99.90
43810;DHT22;29440;48.208;11.162;2024-03-23T07:18:36;15.10;99.90
43810;DHT22;29440;48.208;11.162;2024-03-23T07:21:02;14.80;99.90
43810;DHT22;29440;48.208;11.162;2024-03-23T07:23:28;14.50;99.90
43810;DHT22;29440;48.208;11.162;2024-03-23T07:25:58;14.10;99.90
43810;DHT22;29440;48.208;11.162;2024-03-23T07:28:24;13.90;99.90
43810;DHT22;29440;48.208;11.162;2024-03-23T07:33:26;13.30;99.90
43810;DHT22;29440;48.208;11.162;2024-03-23T07:35:52;13.10;99.90
43810;DHT22;29440;48.208;11.162;2024-03-23T07:38:18;12.90;99.90
43810;DHT22;29440;48.208;11.162;2024-03-23T07:40:44;12.70;99.90
43810;DHT22;29440;48.208;11.162;2024-03-23T07:43:09;12.60;99.90
43810;DHT22;29440;48.208;11.162;2024-03-23T07:45:35;12.50;99.90
43810;DHT22;29440;48.208;11.162;2024-03-23T07:48:00;12.30;99.90
43810;DHT22;29440;48.208;11.162;2024-03-23T07:50:26;12.20;99.90
43810;DHT22;29440;48.208;11.162;2024-03-23T07:52:51;12.10;99.90
43810;DHT22;29440;48.208;11.162;2024-03-23T07:55:17;12.10;99.90
43810;DHT22;29440;48.208;11.162;2024-03-23T07:57:44;11.90;99.90
43810;DHT22;29440;48.208;11.162;2024-03-23T08:00:10;11.80;99.90
43810;DHT22;29440;48.208;11.162;2024-03-23T08:02:36;11.70;99.90
43810;DHT22;29440;48.208;11.162;2024-03-23T08:05:02;11.60;99.90
43810;DHT22;29440;48.208;11.162;2024-03-23T08:07:27;11.50;99.90
43810;DHT22;29440;48.208;11.162;2024-03-23T08:09:54;11.30;99.90
43810;DHT22;29440;48.208;11.162;2024-03-23T08:12:19;11.20;99.90
43810;DHT22;29440;48.208;11.162;2024-03-23T08:14:45;11.10;99.90
43810;DHT22;29440;48.208;11.162;2024-03-23T08:17:10;11.00;99.90
43810;DHT22;29440;48.208;11.162;2024-03-23T08:19:36;10.80;99.90
43810;DHT22;29440;48.208;11.162;2024-03-23T08:22:02;10.60;99.90
43810;DHT22;29440;48.208;11.162;2024-03-23T08:24:28;10.60;99.90
43810;DHT22;29440;48.208;11.162;2024-03-23T08:26:54;10.50;99.90
43810;DHT22;29440;48.208;11.162;2024-03-23T08:29:20;10.40;99.90
43810;DHT22;29440;48.208;11.162;2024-03-23T08:31:45;10.30;99.90
43810;DHT22;29440;48.208;11.162;2024-03-23T08:34:11;10.20;99.90
43810;DHT22;29440;48.208;11.162;2024-03-23T08:36:36;10.20;99.90
43810;DHT22;29440;48.208;11.162;2024-03-23T08:39:02;10.10;99.90
43810;DHT22;29440;48.208;11.162;2024-03-23T08:41:27;10.10;99.90
43810;DHT22;29440;48.208;11.162;2024-03-23T08:43:53;10.10;99.90
43810;DHT22;29440;48.208;11.162;2024-03-23T08:46:19;10.20;99.90
43810;DHT22;29440;48.208;11.162;2024-03-23T08:48:46;10.10;99.90
43810;DHT22;29440;48.208;11.162;2024-03-23T08:51:15;10.10;99.90
43810;DHT22;29440;48.208;11.162;2024-03-23T08:53:42;10.00;99.90
43810;DHT22;29440;48.208;11.162;2024-03-23T08:56:08;10.00;99.90
43810;DHT22;29440;48.208;11.162;2024-03-23T08:58:35;9.90;99.90
43810;DHT22;29440;48.208;11.162;2024-03-23T09:01:12;9.90;99.90
43810;DHT22;29440;48.208;11.162;2024-03-23T09:03:41;9.80;99.90
43810;DHT22;29440;48.208;11.162;2024-03-23T09:06:16;9.80;99.90
43810;DHT22;29440;48.208;11.162;2024-03-23T09:08:42;9.70;99.90
43810;DHT22;29440;48.208;11.162;2024-03-23T09:11:10;9.60;99.90
43810;DHT22;29440;48.208;11.162;2024-03-23T09:13:36;9.60;99.90
43810;DHT22;29440;48.208;11.162;2024-03-23T09:16:03;9.60;99.90
43810;DHT22;29440;48.208;11.162;2024-03-23T09:18:32;9.50;99.90
43810;DHT22;29440;48.208;11.162;2024-03-23T09:21:03;9.50;99.90
43810;DHT22;29440;48.208;11.162;2024-03-23T09:23:29;9.50;99.90
43810;DHT22;29440;48.208;11.162;2024-03-23T09:25:55;9.50;99.90
43810;DHT22;29440;48.208;11.162;2024-03-23T09:28:21;9.40;99.90
43810;DHT22;29440;48.208;11.162;2024-03-23T09:30:47;9.50;99.90
43810;DHT22;29440;48.208;11.162;2024-03-23T09:33:13;9.40;99.90
43810;DHT22;29440;48.208;11.162;2024-03-23T09:35:40;9.30;99.90
43810;DHT22;29440;48.208;11.162;2024-03-23T09:38:06;9.40;99.90
43810;DHT22;29440;48.208;11.162;2024-03-23T09:40:39;9.30;99.90
43810;DHT22;29440;48.208;11.162;2024-03-23T09:43:06;9.30;99.90
43810;DHT22;29440;48.208;11.162;2024-03-23T09:45:35;9.20;99.90
43810;DHT22;29440;48.208;11.162;2024-03-23T09:48:02;9.20;99.90
43810;DHT22;29440;48.208;11.162;2024-03-23T09:50:28;9.10;99.90
43810;DHT22;29440;48.208;11.162;2024-03-23T09:52:54;9.00;99.90
43810;DHT22;29440;48.208;11.162;2024-03-23T09:55:20;9.00;99.90
43810;DHT22;29440;48.208;11.162;2024-03-23T09:57:45;9.00;99.90
43810;DHT22;29440;48.208;11.162;2024-03-23T10:00:11;8.90;99.90
43810;DHT22;29440;48.208;11.162;2024-03-23T10:02:38;8.90;99.90
43810;DHT22;29440;48.208;11.162;2024-03-23T10:05:04;8.90;99.90
43810;DHT22;29440;48.208;11.162;2024-03-23T10:07:29;8.90;99.90
43810;DHT22;29440;48.208;11.162;2024-03-23T10:09:56;8.90;99.90
43810;DHT22;29440;48.208;11.162;2024-03-23T10:12:27;8.90;99.90
43810;DHT22;29440;48.208;11.162;2024-03-23T10:14:52;8.90;99.90
43810;DHT22;29440;48.208;11.162;2024-03-23T10:17:21;8.90;99.90
43810;DHT22;29440;48.208;11.162;2024-03-23T10:19:50;8.80;99.90
43810;DHT22;29440;48.208;11.162;2024-03-23T10:22:22;8.80;99.90
43810;DHT22;29440;48.208;11.162;2024-03-23T10:24:49;8.80;99.90
43810;DHT22;29440;48.208;11.162;2024-03-23T10:27:20;8.60;99.90
43810;DHT22;29440;48.208;11.162;2024-03-23T10:29:49;8.60;99.90
43810;DHT22;29440;48.208;11.162;2024-03-23T10:32:42;8.40;99.90
43810;DHT22;29440;48.208;11.162;2024-03-23T10:35:21;8.40;99.90
43810;DHT22;29440;48.208;11.162;2024-03-23T10:37:48;8.40;99.90
43810;DHT22;29440;48.208;11.162;2024-03-23T10:40:17;8.50;99.90
43810;DHT22;29440;48.208;11.162;2024-03-23T10:42:44;8.40;99.90
43810;DHT22;29440;48.208;11.162;2024-03-23T10:45:10;8.40;99.90
43810;DHT22;29440;48.208;11.162;2024-03-23T10:47:36;8.40;99.90
43810;DHT22;29440;48.208;11.162;2024-03-23T10:50:05;8.50;99.90
43810;DHT22;29440;48.208;11.162;2024-03-23T10:52:34;8.50;99.90
43810;DHT22;29440;48.208;11.162;2024-03-23T10:55:04;8.50;99.90
43810;DHT22;29440;48.208;11.162;2024-03-23T10:57:39;8.60;99.90
43810;DHT22;29440;48.208;11.162;2024-03-23T11:00:06;8.60;99.90
43810;DHT22;29440;48.208;11.162;2024-03-23T11:02:32;8.60;99.90
43810;DHT22;29440;48.208;11.162;2024-03-23T11:04:57;8.70;99.90
43810;DHT22;29440;48.208;11.162;2024-03-23T11:09:55;8.70;99.90
43810;DHT22;29440;48.208;11.162;2024-03-23T11:14:57;8.70;99.90
43810;DHT22;29440;48.208;11.162;2024-03-23T11:17:25;8.70;99.90
43810;DHT22;29440;48.208;11.162;2024-03-23T11:20:03;8.70;99.90
43810;DHT22;29440;48.208;11.162;2024-03-23T11:22:46;8.80;99.90
43810;DHT22;29440;48.208;11.162;2024-03-23T11:25:22;8.90;99.90
43810;DHT22;29440;48.208;11.162;2024-03-23T11:28:09;9.00;99.90
43810;DHT22;29440;48.208;11.162;2024-03-23T11:30:35;9.20;99.90
43810;DHT22;29440;48.208;11.162;2024-03-23T11:33:03;9.40;99.90
43810;DHT22;29440;48.208;11.162;2024-03-23T11:35:39;9.50;99.90
43810;DHT22;29440;48.208;11.162;2024-03-23T11:38:16;9.70;99.90
43810;DHT22;29440;48.208;11.162;2024-03-23T11:40:48;9.70;99.90
43810;DHT22;29440;48.208;11.162;2024-03-23T11:43:17;9.70;99.90
43810;DHT22;29440;48.208;11.162;2024-03-23T11:45:47;9.70;99.90
43810;DHT22;29440;48.208;11.162;2024-03-23T11:48:18;9.70;99.90
43810;DHT22;29440;48.208;11.162;2024-03-23T11:50:45;9.60;99.90
43810;DHT22;29440;48.208;11.162;2024-03-23T11:53:19;9.60;99.90
43810;DHT22;29440;48.208;11.162;2024-03-23T11:55:46;9.50;99.90
43810;DHT22;29440;48.208;11.162;2024-03-23T11:58:12;9.60;99.90
43810;DHT22;29440;48.208;11.162;2024-03-23T12:00:38;9.60;99.90
43810;DHT22;29440;48.208;11.162;2024-03-23T12:03:04;9.70;99.90
43810;DHT22;29440;48.208;11.162;2024-03-23T12:05:31;9.50;99.90
43810;DHT22;29440;48.208;11.162;2024-03-23T12:08:20;9.50;99.90
43810;DHT22;29440;48.208;11.162;2024-03-23T12:11:13;9.40;99.90
43810;DHT22;29440;48.208;11.162;2024-03-23T12:13:40;9.30;99.90
43810;DHT22;29440;48.208;11.162;2024-03-23T12:16:15;9.20;99.90
43810;DHT22;29440;48.208;11.162;2024-03-23T12:18:44;9.20;99.90
43810;DHT22;29440;48.208;11.162;2024-03-23T12:21:10;9.20;99.90
43810;DHT22;29440;48.208;11.162;2024-03-23T12:23:39;9.20;99.90
43810;DHT22;29440;48.208;11.162;2024-03-23T12:26:04;9.20;99.90
43810;DHT22;29440;48.208;11.162;2024-03-23T12:28:30;9.20;99.90
43810;DHT22;29440;48.208;11.162;2024-03-23T12:30:55;9.30;99.90
43810;DHT22;29440;48.208;11.162;2024-03-23T12:33:22;9.30;99.90
43810;DHT22;29440;48.208;11.162;2024-03-23T12:35:51;9.40;99.90
43810;DHT22;29440;48.208;11.162;2024-03-23T12:38:17;9.40;99.90
43810;DHT22;29440;48.208;11.162;2024-03-23T12:40:46;9.40;99.90
43810;DHT22;29440;48.208;11.162;2024-03-23T12:43:13;9.40;99.90
43810;DHT22;29440;48.208;11.162;2024-03-23T12:45:38;9.40;99.90
43810;DHT22;29440;48.208;11.162;2024-03-23T12:48:04;9.40;99.90
43810;DHT22;29440;48.208;11.162;2024-03-23T12:50:30;9.30;99.90
43810;DHT22;29440;48.208;11.162;2024-03-23T12:52:55;9.20;99.90
43810;DHT22;29440;48.208;11.162;2024-03-23T12:55:21;9.30;99.90
43810;DHT22;29440;48.208;11.162;2024-03-23T12:57:47;9.20;99.90
43810;DHT22;29440;48.208;11.162;2024-03-23T13:00:13;9.10;99.90
43810;DHT22;29440;48.208;11.162;2024-03-23T13:02:39;9.10;99.90
43810;DHT22;29440;48.208;11.162;2024-03-23T13:05:05;9.00;99.90
43810;DHT22;29440;48.208;11.162;2024-03-23T13:07:30;9.00;99.90
43810;DHT22;29440;48.208;11.162;2024-03-23T13:09:56;9.00;99.90
43810;DHT22;29440;48.208;11.162;2024-03-23T13:12:22;9.00;99.90
43810;DHT22;29440;48.208;11.162;2024-03-23T13:14:48;9.20;99.90
43810;DHT22;29440;48.208;11.162;2024-03-23T13:17:14;9.10;99.90
43810;DHT22;29440;48.208;11.162;2024-03-23T13:19:40;9.10;99.90
43810;DHT22;29440;48.208;11.162;2024-03-23T13:22:06;9.10;99.90
43810;DHT22;29440;48.208;11.162;2024-03-23T13:24:31;9.20;99.90
43810;DHT22;29440;48.208;11.162;2024-03-23T13:26:57;9.20;99.90
43810;DHT22;29440;48.208;11.162;2024-03-23T13:29:24;9.10;99.90
43810;DHT22;29440;48.208;11.162;2024-03-23T13:31:51;9.00;99.90
43810;DHT22;29440;48.208;11.162;2024-03-23T13:34:17;8.90;99.90
43810;DHT22;29440;48.208;11.162;2024-03-23T13:36:47;8.60;99.90
43810;DHT22;29440;48.208;11.162;2024-03-23T13:39:14;8.50;99.90
43810;DHT22;29440;48.208;11.162;2024-03-23T13:41:42;8.30;99.90
43810;DHT22;29440;48.208;11.162;2024-03-23T13:44:09;8.20;99.90
43810;DHT22;29440;48.208;11.162;2024-03-23T13:46:39;8.20;99.90
43810;DHT22;29440;48.208;11.162;2024-03-23T13:49:07;8.10;99.90
43810;DHT22;29440;48.208;11.162;2024-03-23T13:51:33;8.00;99.90
43810;DHT22;29440;48.208;11.162;2024-03-23T13:53:59;8.00;99.90
43810;DHT22;29440;48.208;11.162;2024-03-23T13:56:30;7.90;99.90
43810;DHT22;29440;48.208;11.162;2024-03-23T13:58:56;7.90;99.90
43810;DHT22;29440;48.208;11.162;2024-03-23T14:01:22;7.90;99.90
43810;DHT22;29440;48.208;11.162;2024-03-23T14:03:48;8.00;99.90
43810;DHT22;29440;48.208;11.162;2024-03-23T14:06:13;7.90;99.90
43810;DHT22;29440;48.208;11.162;2024-03-23T14:08:39;7.90;99.90
43810;DHT22;29440;48.208;11.162;2024-03-23T14:11:08;7.90;99.90
43810;DHT22;29440;48.208;11.162;2024-03-23T14:13:35;7.90;99.90
43810;DHT22;29440;48.208;11.162;2024-03-23T14:16:01;7.80;99.90
43810;DHT22;29440;48.208;11.162;2024-03-23T14:18:27;7.80;99.90
43810;DHT22;29440;48.208;11.162;2024-03-23T14:20:56;7.80;99.90
43810;DHT22;29440;48.208;11.162;2024-03-23T14:23:26;7.80;99.90
43810;DHT22;29440;48.208;11.162;2024-03-23T14:25:53;7.80;99.90
43810;DHT22;29440;48.208;11.162;2024-03-23T14:28:19;7.80;99.90
43810;DHT22;29440;48.208;11.162;2024-03-23T14:30:44;7.70;99.90
43810;DHT22;29440;48.208;11.162;2024-03-23T14:33:21;7.70;99.90
43810;DHT22;29440;48.208;11.162;2024-03-23T14:35:53;7.70;99.90
43810;DHT22;29440;48.208;11.162;2024-03-23T14:38:19;7.70;99.90
43810;DHT22;29440;48.208;11.162;2024-03-23T14:40:48;7.60;99.90
43810;DHT22;29440;48.208;11.162;2024-03-23T14:43:14;7.60;99.90
43810;DHT22;29440;48.208;11.162;2024-03-23T14:46:11;7.60;99.90
43810;DHT22;29440;48.208;11.162;2024-03-23T14:48:42;7.60;99.90
43810;DHT22;29440;48.208;11.162;2024-03-23T14:51:09;7.50;99.90
43810;DHT22;29440;48.208;11.162;2024-03-23T14:53:37;7.50;99.90
43810;DHT22;29440;48.208;11.162;2024-03-23T14:56:05;7.50;99.90
43810;DHT22;29440;48.208;11.162;2024-03-23T14:58:31;7.40;99.90
43810;DHT22;29440;48.208;11.162;2024-03-23T15:01:02;7.40;99.90
43810;DHT22;29440;48.208;11.162;2024-03-23T15:03:28;7.40;99.90
43810;DHT22;29440;48.208;11.162;2024-03-23T15:05:58;7.30;99.90
43810;DHT22;29440;48.208;11.162;2024-03-23T15:08:24;7.40;99.90
43810;DHT22;29440;48.208;11.162;2024-03-23T15:10:50;7.40;99.90
43810;DHT22;29440;48.208;11.162;2024-03-23T15:13:15;7.40;99.90
43810;DHT22;29440;48.208;11.162;2024-03-23T15:15:42;7.30;99.90
43810;DHT22;29440;48.208;11.162;2024-03-23T15:18:11;7.30;99.90
43810;DHT22;29440;48.208;11.162;2024-03-23T15:20:51;7.40;99.90
43810;DHT22;29440;48.208;11.162;2024-03-23T15:23:20;7.40;99.90
43810;DHT22;29440;48.208;11.162;2024-03-23T15:26:01;7.50;99.90
43810;DHT22;29440;48.208;11.162;2024-03-23T15:28:28;7.40;99.90
43810;DHT22;29440;48.208;11.162;2024-03-23T15:31:08;7.50;99.90
43810;DHT22;29440;48.208;11.162;2024-03-23T15:33:34;7.60;99.90
43810;DHT22;29440;48.208;11.162;2024-03-23T15:36:01;7.80;99.90
43810;DHT22;29440;48.208;11.162;2024-03-23T15:38:27;7.80;99.90
43810;DHT22;29440;48.208;11.162;2024-03-23T15:41:04;7.90;99.90
43810;DHT22;29440;48.208;11.162;2024-03-23T15:43:29;8.10;99.90
43810;DHT22;29440;48.208;11.162;2024-03-23T15:45:58;8.10;99.90
43810;DHT22;29440;48.208;11.162;2024-03-23T15:48:30;8.20;99.90
43810;DHT22;29440;48.208;11.162;2024-03-23T15:51:02;8.30;99.90
43810;DHT22;29440;48.208;11.162;2024-03-23T15:53:31;8.30;99.90
43810;DHT22;29440;48.208;11.162;2024-03-23T15:55:58;8.40;99.90
43810;DHT22;29440;48.208;11.162;2024-03-23T15:58:24;8.40;99.90
43810;DHT22;29440;48.208;11.162;2024-03-23T16:01:05;8.40;99.90
43810;DHT22;29440;48.208;11.162;2024-03-23T16:03:32;8.30;99.90
43810;DHT22;29440;48.208;11.162;2024-03-23T16:06:06;8.20;99.90
43810;DHT22;29440;48.208;11.162;2024-03-23T16:08:35;8.10;99.90
43810;DHT22;29440;48.208;11.162;2024-03-23T16:11:05;8.10;99.90
43810;DHT22;29440;48.208;11.162;2024-03-23T16:13:32;8.10;99.90
43810;DHT22;29440;48.208;11.162;2024-03-23T16:15:58;8.00;99.90
43810;DHT22;29440;48.208;11.162;2024-03-23T16:18:25;8.00;99.90
43810;DHT22;29440;48.208;11.162;2024-03-23T16:20:58;7.90;99.90
43810;DHT22;29440;48.208;11.162;2024-03-23T16:23:24;7.90;99.90
43810;DHT22;29440;48.208;11.162;2024-03-23T16:25:51;7.90;99.90